Lexington, KY

1:53 PM EST on January 31, 2015 (GMT -0500)
Blue Grass | Change Station
CLOSE
Current Station
Airport
Location: Lexington,
Elevation: 988 ft
Nearby Weather Stations

Elev 988 ft 38.04 °N, 84.61 °W | Updated 59 minutes ago

Partly Cloudy
Partly Cloudy
37 °F
Feels Like 33 °F
N
5
Wind Variable Wind from SW

Today
High -- | Low -- °F
--% Chance of Precip.
Yesterday
High -- | Low -- °F
Precip. -- in
7:43 AM 5:59 PM
Waxing Gibbous, 91% visible
Pressure 30.39 in
Visibility 10.0 miles
Clouds Clear
Windchill 33 °F
Dew Point 20 °F
Humidity 50%
Rainfall 0.00 in
Snow Depth Not available.
UV 4 out of 12
Pollen .10 out of 12
Air Quality Not available.
Flu Activity Not available.
METAR KLEX 311754Z 22004KT 10SM CLR 03/M07 A3036 RMK AO2 SLP289 T00281067 10028 21072 58012

More Conditions Fewer Conditions

Pressure 30.39 in
Visibility 10.0 miles
Clouds Clear
Windchill 33 °F
Dew Point 20 °F
Humidity 50%
Rainfall 0.00 in
Snow Depth Not available.
UV 4 out of 12
Pollen .10 out of 12
Air Quality Not available.
Flu Activity Not available.
METAR KLEX 311754Z 22004KT 10SM CLR 03/M07 A3036 RMK AO2 SLP289 T00281067 10028 21072 58012

More Conditions Fewer Conditions

10-Day Weather Forecast

Almanac

Astronomy

Jan. 31, 2015 Rise Set
Actual Time
Civil Twilight
Nautical Twilight
Astronomical Twilight
Moon
Length of Visible Light
Length of Day
Tomorrow will be .
, % of the Moon is Illuminated

Today's Extremes

State Highs State Lows

Community

WunderPhotos

Upload Photos

1,792,149 photos uploaded!

WunderBlogs® & News

Nearby

Air Quality

  Air Quality AQ Index Pollutant
Not available.

Snow Depth

Station Depth Elevation

Earthquake Activity

City Distance Mag. Time & Date
Minimum magnitude displayed is 2.5.

Coastal Water Temperatures

Place Temperature

Nearby Weather Stations